Time;durP1;ratioP1;P1;durP2;ratioP2;P2;SDS_P1;SDS_P2;PMS_P1;PMS_P2;Temp;Humidity;BMP_temperature;BMP_pressure;BME280_temperature;BME280_humidity;BME280_pressure;Samples;Min_cycle;Max_cycle;Signal;HPM_P1;HPM_P2
2023/04/23 00:01:19;;;;;;;64.30;6.83;;;;;;;;;;5071045;28;20948;-70
2023/04/23 00:03:47;;;;;;;63.90;6.03;;;;;;;;;;5074595;28;20537;-70
2023/04/23 00:06:16;;;;;;;62.77;6.87;;;;;;;;;;5074879;28;20455;-69
2023/04/23 00:08:43;;;;;;;64.67;5.30;;;;;;;;;;5074250;28;20473;-69
2023/04/23 00:11:11;;;;;;;60.67;5.70;;;;;;;;;;5074577;28;20461;-69
2023/04/23 00:13:38;;;;;;;59.27;4.77;;;;;;;;;;5074507;28;20533;-70
2023/04/23 00:16:09;;;;;;;61.97;4.70;;;;;;;;;;5075029;28;20454;-69
2023/04/23 00:18:37;;;;;;;61.80;4.63;;;;;;;;;;5073834;28;20490;-69
2023/04/23 00:21:04;;;;;;;59.27;4.50;;;;;;;;;;5074474;28;20447;-69
2023/04/23 00:23:31;;;;;;;59.77;4.90;;;;;;;;;;5074409;28;20471;-69
2023/04/23 00:25:58;;;;;;;60.10;4.47;;;;;;;;;;5074168;28;20956;-69
2023/04/23 00:28:25;;;;;;;60.17;5.43;;;;;;;;;;5074175;28;20446;-69
2023/04/23 00:30:52;;;;;;;59.43;4.57;;;;;;;;;;5073906;28;20446;-69
2023/04/23 00:33:21;;;;;;;62.20;4.37;;;;;;;;;;5073879;28;20948;-68
2023/04/23 00:35:48;;;;;;;59.53;4.30;;;;;;;;;;5074291;28;20457;-69
2023/04/23 00:38:15;;;;;;;62.13;4.37;;;;;;;;;;5074037;28;21173;-69
2023/04/23 00:40:42;;;;;;;59.47;4.50;;;;;;;;;;5073713;28;20443;-69
2023/04/23 00:43:10;;;;;;;61.97;4.30;;;;;;;;;;5074337;28;20458;-69
2023/04/23 00:45:37;;;;;;;63.50;4.00;;;;;;;;;;5074079;28;20451;-69
2023/04/23 00:48:04;;;;;;;61.07;4.63;;;;;;;;;;5073869;28;20450;-69
2023/04/23 00:50:33;;;;;;;60.37;3.80;;;;;;;;;;5072897;28;20463;-69
2023/04/23 00:53:00;;;;;;;66.40;4.27;;;;;;;;;;5073946;28;20940;-69
2023/04/23 00:55:27;;;;;;;60.00;4.13;;;;;;;;;;5073568;28;20452;-69
2023/04/23 00:57:54;;;;;;;59.20;3.90;;;;;;;;;;5073808;28;20483;-70
2023/04/23 01:00:22;;;;;;;61.30;3.80;;;;;;;;;;5073436;28;20467;-69
2023/04/23 01:02:51;;;;;;;59.63;4.20;;;;;;;;;;5073783;28;20486;-69
2023/04/23 01:05:20;;;;;;;58.87;3.93;;;;;;;;;;5073183;28;20458;-69
2023/04/23 01:07:49;;;;;;;62.00;4.00;;;;;;;;;;5073437;28;20448;-69
2023/04/23 01:10:16;;;;;;;60.50;4.47;;;;;;;;;;5073339;28;20554;-69
2023/04/23 01:12:43;;;;;;;59.67;4.60;;;;;;;;;;5073117;28;20450;-69
2023/04/23 01:15:11;;;;;;;59.27;4.20;;;;;;;;;;5073199;28;20818;-69
2023/04/23 01:17:38;;;;;;;60.27;4.27;;;;;;;;;;5073344;28;20448;-69
2023/04/23 01:20:07;;;;;;;59.20;4.10;;;;;;;;;;5072621;28;20470;-69
2023/04/23 01:22:36;;;;;;;58.63;4.30;;;;;;;;;;5073125;28;21010;-69
2023/04/23 01:25:03;;;;;;;59.10;4.03;;;;;;;;;;5073053;28;20550;-69
2023/04/23 01:27:30;;;;;;;63.60;4.80;;;;;;;;;;5071732;28;21078;-70
2023/04/23 01:29:58;;;;;;;58.40;4.10;;;;;;;;;;5072755;28;20833;-69
2023/04/23 01:32:25;;;;;;;59.37;4.47;;;;;;;;;;5072921;28;20450;-69
2023/04/23 01:34:53;;;;;;;59.00;4.30;;;;;;;;;;5073230;28;20458;-69
2023/04/23 01:37:21;;;;;;;59.67;4.50;;;;;;;;;;5073131;28;20447;-69
2023/04/23 01:39:49;;;;;;;59.80;4.40;;;;;;;;;;5072846;28;20487;-70
2023/04/23 01:42:17;;;;;;;60.67;4.20;;;;;;;;;;5072937;28;20799;-69
2023/04/23 01:44:44;;;;;;;59.20;4.10;;;;;;;;;;5072739;28;20474;-69
2023/04/23 01:47:11;;;;;;;59.53;4.23;;;;;;;;;;5072875;28;20485;-69
2023/04/23 01:49:38;;;;;;;60.60;4.70;;;;;;;;;;5072578;28;20464;-70
2023/04/23 01:52:06;;;;;;;59.80;4.17;;;;;;;;;;5072885;28;20448;-69
2023/04/23 01:54:33;;;;;;;58.57;4.30;;;;;;;;;;5072750;28;20459;-69
2023/04/23 01:57:01;;;;;;;60.20;4.40;;;;;;;;;;5072656;28;20454;-69
2023/04/23 01:59:29;;;;;;;60.17;4.60;;;;;;;;;;5072002;28;20539;-69
2023/04/23 02:01:56;;;;;;;59.87;4.70;;;;;;;;;;5072678;28;20825;-69
2023/04/23 02:04:23;;;;;;;59.87;4.50;;;;;;;;;;5072672;28;20457;-70
2023/04/23 02:06:51;;;;;;;59.60;4.40;;;;;;;;;;5072921;28;20466;-69
2023/04/23 02:09:18;;;;;;;59.80;4.20;;;;;;;;;;5072041;28;20467;-69
2023/04/23 02:11:45;;;;;;;60.97;4.47;;;;;;;;;;5072186;28;20458;-69
2023/04/23 02:14:14;;;;;;;60.53;5.00;;;;;;;;;;5072527;28;20825;-70
2023/04/23 02:16:41;;;;;;;60.77;4.87;;;;;;;;;;5072500;28;20538;-69
2023/04/23 02:19:08;;;;;;;58.77;4.23;;;;;;;;;;5071849;28;20491;-69
2023/04/23 02:21:35;;;;;;;59.70;3.90;;;;;;;;;;5072221;28;20447;-69
2023/04/23 02:24:04;;;;;;;59.17;4.70;;;;;;;;;;5072177;28;20478;-69
2023/04/23 02:26:31;;;;;;;59.57;4.50;;;;;;;;;;5072006;28;20558;-69
2023/04/23 02:28:58;;;;;;;61.37;5.47;;;;;;;;;;5071906;28;20838;-69
2023/04/23 02:31:27;;;;;;;59.47;4.87;;;;;;;;;;5072068;28;20462;-69
2023/04/23 02:33:54;;;;;;;59.70;4.70;;;;;;;;;;5072094;28;20453;-69
2023/04/23 02:36:21;;;;;;;60.63;5.60;;;;;;;;;;5072246;28;20821;-69
2023/04/23 02:38:49;;;;;;;60.07;5.20;;;;;;;;;;5071364;28;20492;-69
2023/04/23 02:41:17;;;;;;;61.00;5.00;;;;;;;;;;5072056;28;20521;-69
2023/04/23 02:43:44;;;;;;;60.77;5.37;;;;;;;;;;5071929;28;20451;-69
2023/04/23 02:46:11;;;;;;;59.37;4.60;;;;;;;;;;5071765;28;20456;-69
2023/04/23 02:48:40;;;;;;;59.70;4.37;;;;;;;;;;5071472;28;21000;-69
2023/04/23 02:51:08;;;;;;;60.70;4.50;;;;;;;;;;5071833;28;20450;-69
2023/04/23 02:53:35;;;;;;;60.77;5.00;;;;;;;;;;5071750;28;20451;-69
2023/04/23 02:56:02;;;;;;;60.30;5.00;;;;;;;;;;5072118;28;20486;-70
2023/04/23 02:58:29;;;;;;;62.20;4.47;;;;;;;;;;5071364;28;21037;-69
2023/04/23 03:00:57;;;;;;;64.07;5.03;;;;;;;;;;5071917;28;20450;-69
2023/04/23 03:03:25;;;;;;;60.80;5.07;;;;;;;;;;5071732;28;20504;-70
2023/04/23 03:05:53;;;;;;;60.60;5.57;;;;;;;;;;5071676;28;20554;-69
2023/04/23 03:08:20;;;;;;;62.40;5.53;;;;;;;;;;5071512;28;20522;-70
2023/04/23 03:10:48;;;;;;;64.40;6.20;;;;;;;;;;5071406;28;20931;-69
2023/04/23 03:13:15;;;;;;;61.00;6.30;;;;;;;;;;5071804;28;20445;-70
2023/04/23 03:15:42;;;;;;;61.70;6.50;;;;;;;;;;5071684;28;20447;-69
2023/04/23 03:18:09;;;;;;;60.30;5.47;;;;;;;;;;5071520;28;20450;-70
2023/04/23 03:20:37;;;;;;;60.07;5.40;;;;;;;;;;5071186;28;20489;-69
2023/04/23 03:23:06;;;;;;;61.20;5.80;;;;;;;;;;5071864;28;20447;-69
2023/04/23 03:25:33;;;;;;;61.17;5.50;;;;;;;;;;5071653;28;20451;-69
2023/04/23 03:28:00;;;;;;;59.77;5.60;;;;;;;;;;5071551;28;20799;-69
2023/04/23 03:30:28;;;;;;;61.10;5.83;;;;;;;;;;5071046;28;20979;-69
2023/04/23 03:32:56;;;;;;;60.13;6.10;;;;;;;;;;5071381;28;20473;-70
2023/04/23 03:35:23;;;;;;;60.17;5.90;;;;;;;;;;5071608;28;20504;-69
2023/04/23 03:37:50;;;;;;;61.07;5.67;;;;;;;;;;5074324;28;20455;-69
2023/04/23 03:40:19;;;;;;;61.17;6.40;;;;;;;;;;5074926;28;20491;-69
2023/04/23 03:42:46;;;;;;;60.30;5.70;;;;;;;;;;5075185;28;20447;-69
2023/04/23 03:45:16;;;;;;;60.13;5.63;;;;;;;;;;5075170;28;20447;-70
2023/04/23 03:47:43;;;;;;;61.20;5.90;;;;;;;;;;5074985;28;20830;-70
2023/04/23 03:50:11;;;;;;;59.57;5.40;;;;;;;;;;5074669;28;20467;-70
2023/04/23 03:52:39;;;;;;;61.40;6.63;;;;;;;;;;5075143;28;20447;-69
2023/04/23 03:55:07;;;;;;;60.30;6.50;;;;;;;;;;5075063;28;20827;-69
2023/04/23 03:57:35;;;;;;;64.53;6.07;;;;;;;;;;5074911;28;20458;-70
2023/04/23 04:00:03;;;;;;;65.83;7.00;;;;;;;;;;5074363;28;21010;-70
2023/04/23 04:02:30;;;;;;;62.27;6.37;;;;;;;;;;5074775;28;20452;-69
2023/04/23 04:04:57;;;;;;;62.37;6.43;;;;;;;;;;5074734;28;20935;-69
2023/04/23 04:07:24;;;;;;;62.07;7.13;;;;;;;;;;5074848;28;20462;-69
2023/04/23 04:09:51;;;;;;;64.47;6.40;;;;;;;;;;5074673;28;20867;-69
2023/04/23 04:12:18;;;;;;;61.90;6.83;;;;;;;;;;5074708;28;20447;-69
2023/04/23 04:14:47;;;;;;;61.03;6.87;;;;;;;;;;5074570;28;20838;-69
2023/04/23 04:17:15;;;;;;;64.87;6.63;;;;;;;;;;5074731;28;20448;-69
2023/04/23 04:19:42;;;;;;;60.97;6.40;;;;;;;;;;5074231;28;20487;-69
2023/04/23 04:22:09;;;;;;;62.43;6.50;;;;;;;;;;5074642;28;20805;-69
2023/04/23 04:24:36;;;;;;;62.60;6.97;;;;;;;;;;5074422;28;20470;-69
2023/04/23 04:27:04;;;;;;;61.87;7.00;;;;;;;;;;5074348;28;20483;-70
2023/04/23 04:29:32;;;;;;;60.57;6.60;;;;;;;;;;5073876;28;20475;-69
2023/04/23 04:32:01;;;;;;;61.40;6.63;;;;;;;;;;5074492;28;20474;-70
2023/04/23 04:34:29;;;;;;;61.60;6.30;;;;;;;;;;5074406;28;20450;-70
2023/04/23 04:36:56;;;;;;;62.63;5.73;;;;;;;;;;5074120;28;20447;-69
2023/04/23 04:39:23;;;;;;;61.40;6.17;;;;;;;;;;5073716;28;20573;-69
2023/04/23 04:41:50;;;;;;;60.00;5.17;;;;;;;;;;5073944;28;20451;-69
2023/04/23 04:44:18;;;;;;;61.80;5.90;;;;;;;;;;5074206;28;20493;-70
2023/04/23 04:46:45;;;;;;;62.50;6.23;;;;;;;;;;5074183;28;20470;-70
2023/04/23 04:49:13;;;;;;;61.70;6.10;;;;;;;;;;5072556;28;20466;-69
2023/04/23 04:51:41;;;;;;;60.77;6.07;;;;;;;;;;5074069;28;20453;-69
2023/04/23 04:54:08;;;;;;;60.37;5.53;;;;;;;;;;5074113;28;20451;-69
2023/04/23 04:56:35;;;;;;;61.57;6.00;;;;;;;;;;5074006;28;20939;-69
2023/04/23 04:59:03;;;;;;;61.57;6.73;;;;;;;;;;5073819;28;20483;-69
2023/04/23 05:01:30;;;;;;;64.60;7.43;;;;;;;;;;5074264;28;20443;-69
2023/04/23 05:03:57;;;;;;;60.60;6.00;;;;;;;;;;5073782;28;20465;-69
2023/04/23 05:06:27;;;;;;;60.20;6.20;;;;;;;;;;5073562;28;20458;-69
2023/04/23 05:08:54;;;;;;;63.57;6.30;;;;;;;;;;5073128;28;20486;-69
2023/04/23 05:11:21;;;;;;;61.83;6.23;;;;;;;;;;5071210;28;20455;-69
2023/04/23 05:13:49;;;;;;;60.70;5.60;;;;;;;;;;5073178;28;20451;-69
2023/04/23 05:16:16;;;;;;;59.60;5.50;;;;;;;;;;5072815;28;20451;-70
2023/04/23 05:18:43;;;;;;;59.50;5.70;;;;;;;;;;5071701;28;20471;-69
2023/04/23 05:21:10;;;;;;;61.20;6.23;;;;;;;;;;5072451;28;20451;-69
2023/04/23 05:23:39;;;;;;;60.23;5.53;;;;;;;;;;5072983;28;20463;-69
2023/04/23 05:26:06;;;;;;;60.70;6.07;;;;;;;;;;5073519;28;20450;-69
2023/04/23 05:28:33;;;;;;;59.30;5.30;;;;;;;;;;5072819;28;20924;-70
2023/04/23 05:31:00;;;;;;;61.90;4.80;;;;;;;;;;5073276;28;20444;-69
2023/04/23 05:33:27;;;;;;;60.60;4.33;;;;;;;;;;5073380;28;20447;-69
2023/04/23 05:35:56;;;;;;;58.40;3.87;;;;;;;;;;5072932;28;20450;-70
2023/04/23 05:38:23;;;;;;;59.10;4.60;;;;;;;;;;5072991;28;20447;-69
2023/04/23 05:40:51;;;;;;;59.10;4.47;;;;;;;;;;5072566;28;20569;-69
2023/04/23 05:43:18;;;;;;;60.07;4.70;;;;;;;;;;5073008;28;20439;-71
2023/04/23 05:45:45;;;;;;;62.00;3.50;;;;;;;;;;5072915;28;20936;-69
2023/04/23 05:48:13;;;;;;;58.40;4.00;;;;;;;;;;5072909;28;20443;-70
2023/04/23 05:50:40;;;;;;;58.80;4.10;;;;;;;;;;5072300;28;20463;-70
2023/04/23 05:53:07;;;;;;;58.30;4.00;;;;;;;;;;5072801;28;20546;-70
2023/04/23 05:55:34;;;;;;;59.20;4.13;;;;;;;;;;5072860;28;20447;-69
2023/04/23 05:58:03;;;;;;;58.97;4.30;;;;;;;;;;5072550;28;20983;-69
2023/04/23 06:00:31;;;;;;;58.20;3.50;;;;;;;;;;5071787;28;21081;-70
2023/04/23 06:02:58;;;;;;;59.10;4.00;;;;;;;;;;5072420;28;20501;-69
2023/04/23 06:05:25;;;;;;;59.60;4.50;;;;;;;;;;5072658;28;20452;-70
2023/04/23 06:07:52;;;;;;;58.67;3.80;;;;;;;;;;5072375;28;20447;-69
2023/04/23 06:10:19;;;;;;;59.77;4.97;;;;;;;;;;5072061;28;20834;-70
2023/04/23 06:12:47;;;;;;;58.60;4.30;;;;;;;;;;5072398;28;20454;-69
2023/04/23 06:15:15;;;;;;;58.60;4.30;;;;;;;;;;5072288;28;20439;-70
2023/04/23 06:17:42;;;;;;;58.67;4.33;;;;;;;;;;5072139;28;20473;-70
2023/04/23 06:20:10;;;;;;;59.00;3.67;;;;;;;;;;5071941;28;20483;-70
2023/04/23 06:22:37;;;;;;;58.57;3.70;;;;;;;;;;5072296;28;20451;-70
2023/04/23 06:25:05;;;;;;;58.27;3.70;;;;;;;;;;5072148;28;20826;-70
2023/04/23 06:27:32;;;;;;;58.50;3.57;;;;;;;;;;5072228;28;20478;-70
2023/04/23 06:30:00;;;;;;;58.20;3.30;;;;;;;;;;5071723;28;20503;-70
2023/04/23 06:32:28;;;;;;;57.90;3.43;;;;;;;;;;5072101;28;20970;-70
2023/04/23 06:34:55;;;;;;;58.03;3.40;;;;;;;;;;5072172;28;20447;-69
2023/04/23 06:37:22;;;;;;;58.03;2.93;;;;;;;;;;5072125;28;20444;-70
2023/04/23 06:39:49;;;;;;;58.43;3.03;;;;;;;;;;5071785;28;20877;-70
2023/04/23 06:42:16;;;;;;;57.97;3.40;;;;;;;;;;5071962;28;20444;-70
2023/04/23 06:44:45;;;;;;;57.40;2.70;;;;;;;;;;5071739;28;20455;-69
2023/04/23 06:47:12;;;;;;;58.37;3.23;;;;;;;;;;5072103;28;20452;-70
2023/04/23 06:49:41;;;;;;;57.70;2.70;;;;;;;;;;5071682;28;20826;-69
2023/04/23 06:52:08;;;;;;;58.30;3.00;;;;;;;;;;5071976;28;20479;-70
2023/04/23 06:54:35;;;;;;;57.80;2.90;;;;;;;;;;5072061;28;20817;-69
2023/04/23 06:57:03;;;;;;;57.90;3.10;;;;;;;;;;5071817;28;20497;-69
2023/04/23 06:59:30;;;;;;;57.70;3.23;;;;;;;;;;5071204;28;20582;-70
2023/04/23 07:01:57;;;;;;;59.20;3.10;;;;;;;;;;5071963;28;20444;-70
2023/04/23 07:04:24;;;;;;;57.80;3.10;;;;;;;;;;5071996;28;20444;-69
2023/04/23 07:06:53;;;;;;;59.90;3.20;;;;;;;;;;5071776;28;20459;-70
2023/04/23 07:09:21;;;;;;;57.90;2.77;;;;;;;;;;5071344;28;20502;-69
2023/04/23 07:11:49;;;;;;;57.90;2.80;;;;;;;;;;5072718;28;20935;-69
2023/04/23 07:14:16;;;;;;;57.50;2.97;;;;;;;;;;5076014;28;20813;-70
2023/04/23 07:16:44;;;;;;;57.40;2.70;;;;;;;;;;5075857;28;20451;-69
2023/04/23 07:19:11;;;;;;;57.40;2.77;;;;;;;;;;5075420;28;20468;-69
2023/04/23 07:21:38;;;;;;;58.10;2.60;;;;;;;;;;5075817;28;20660;-69
2023/04/23 07:24:07;;;;;;;57.70;3.00;;;;;;;;;;5075365;28;20459;-70
2023/04/23 07:26:34;;;;;;;57.70;2.60;;;;;;;;;;5075438;28;20447;-69
2023/04/23 07:29:01;;;;;;;57.80;2.83;;;;;;;;;;5075506;28;20467;-69
2023/04/23 07:31:28;;;;;;;57.70;2.73;;;;;;;;;;5075616;28;20454;-70
2023/04/23 07:33:55;;;;;;;57.80;2.90;;;;;;;;;;5075345;28;21031;-69
2023/04/23 07:36:23;;;;;;;57.40;2.83;;;;;;;;;;5075519;28;20497;-69
2023/04/23 07:38:50;;;;;;;58.70;2.80;;;;;;;;;;5074773;28;20464;-70
2023/04/23 07:41:18;;;;;;;58.57;2.90;;;;;;;;;;5075161;28;20827;-67
2023/04/23 07:43:45;;;;;;;57.50;2.90;;;;;;;;;;5075260;28;20447;-67
2023/04/23 07:46:13;;;;;;;58.30;2.90;;;;;;;;;;5075108;28;20459;-67
2023/04/23 07:48:40;;;;;;;57.57;2.80;;;;;;;;;;5074759;28;20482;-67
2023/04/23 07:51:08;;;;;;;57.20;2.73;;;;;;;;;;5075017;28;20480;-68
2023/04/23 07:53:36;;;;;;;57.80;2.50;;;;;;;;;;5074820;28;20443;-68
2023/04/23 07:56:03;;;;;;;57.03;2.57;;;;;;;;;;5075184;28;20450;-68
2023/04/23 07:58:32;;;;;;;57.80;2.80;;;;;;;;;;5074543;28;20954;-70
2023/04/23 08:01:00;;;;;;;58.17;2.57;;;;;;;;;;5074812;28;20487;-68
2023/04/23 08:03:28;;;;;;;57.50;2.97;;;;;;;;;;5074829;28;20450;-68
2023/04/23 08:05:56;;;;;;;58.40;2.63;;;;;;;;;;5074619;28;20474;-67
2023/04/23 08:08:23;;;;;;;57.53;2.63;;;;;;;;;;5074836;28;20497;-68
2023/04/23 08:10:50;;;;;;;60.37;3.40;;;;;;;;;;5074502;28;20982;-67
2023/04/23 08:13:18;;;;;;;58.30;2.77;;;;;;;;;;5074678;28;20447;-68
2023/04/23 08:15:47;;;;;;;57.20;2.60;;;;;;;;;;5074550;28;20459;-68
2023/04/23 08:18:14;;;;;;;57.50;2.80;;;;;;;;;;5074577;28;20451;-69
2023/04/23 08:20:42;;;;;;;58.10;2.57;;;;;;;;;;5074280;28;20483;-67
2023/04/23 08:23:09;;;;;;;58.37;3.10;;;;;;;;;;5074349;28;20455;-69
2023/04/23 08:25:36;;;;;;;57.70;3.00;;;;;;;;;;5074558;28;20447;-68
2023/04/23 08:28:03;;;;;;;57.57;2.73;;;;;;;;;;5074373;28;20452;-69
2023/04/23 08:30:30;;;;;;;58.10;3.10;;;;;;;;;;5074056;28;20501;-68
2023/04/23 08:32:59;;;;;;;58.37;2.97;;;;;;;;;;5074209;28;20447;-69
2023/04/23 08:35:26;;;;;;;58.10;3.10;;;;;;;;;;5074329;28;20466;-68
2023/04/23 08:37:53;;;;;;;58.57;3.03;;;;;;;;;;5074255;28;20831;-68
2023/04/23 08:40:20;;;;;;;57.37;2.73;;;;;;;;;;5073762;28;20491;-68
2023/04/23 08:42:50;;;;;;;57.00;2.67;;;;;;;;;;5074161;28;20465;-69
2023/04/23 08:45:17;;;;;;;57.40;2.90;;;;;;;;;;5073911;28;20443;-69
2023/04/23 08:47:45;;;;;;;59.03;3.40;;;;;;;;;;5073805;28;20444;-69
2023/04/23 08:50:15;;;;;;;58.00;3.40;;;;;;;;;;5073540;28;20468;-69
2023/04/23 08:52:42;;;;;;;58.90;2.90;;;;;;;;;;5074078;28;20830;-69
2023/04/23 08:55:14;;;;;;;58.07;2.93;;;;;;;;;;5073987;28;20451;-69
2023/04/23 08:57:42;;;;;;;58.30;2.80;;;;;;;;;;5073858;28;20807;-69
2023/04/23 09:00:10;;;;;;;57.40;2.80;;;;;;;;;;5073199;28;20505;-69
2023/04/23 09:02:37;;;;;;;57.67;2.97;;;;;;;;;;5073963;28;20449;-69
2023/04/23 09:05:05;;;;;;;58.03;2.80;;;;;;;;;;5073767;28;20951;-69
2023/04/23 09:07:34;;;;;;;57.43;2.70;;;;;;;;;;5073499;28;20447;-69
2023/04/23 09:10:01;;;;;;;58.67;2.97;;;;;;;;;;5073464;28;20562;-68
2023/04/23 09:12:29;;;;;;;58.80;3.00;;;;;;;;;;5073842;28;20832;-69
2023/04/23 09:14:56;;;;;;;58.77;2.70;;;;;;;;;;5073286;28;20534;-69
2023/04/23 09:17:24;;;;;;;57.70;2.80;;;;;;;;;;5073846;28;20454;-70
2023/04/23 09:19:51;;;;;;;58.70;3.20;;;;;;;;;;5073007;28;20537;-69
2023/04/23 09:22:33;;;;;;;57.77;3.00;;;;;;;;;;5073150;28;20487;-69
2023/04/23 09:25:04;;;;;;;58.87;3.30;;;;;;;;;;5072960;28;20451;-69
2023/04/23 09:27:31;;;;;;;58.57;2.90;;;;;;;;;;5073269;28;20450;-70
2023/04/23 09:30:01;;;;;;;57.50;3.27;;;;;;;;;;5072948;28;20459;-70
2023/04/23 09:32:32;;;;;;;58.37;2.73;;;;;;;;;;5073509;28;20501;-69
2023/04/23 09:34:59;;;;;;;58.30;3.00;;;;;;;;;;5072659;28;20447;-69
2023/04/23 09:37:26;;;;;;;57.50;2.87;;;;;;;;;;5073063;28;20801;-68
2023/04/23 09:39:55;;;;;;;57.77;3.00;;;;;;;;;;5072487;28;20521;-69
2023/04/23 09:42:25;;;;;;;57.40;3.00;;;;;;;;;;5072995;28;20483;-69
2023/04/23 09:44:57;;;;;;;58.80;2.90;;;;;;;;;;5072979;28;20465;-68
2023/04/23 09:47:24;;;;;;;57.50;3.00;;;;;;;;;;5072947;28;20448;-68
2023/04/23 09:49:51;;;;;;;58.47;2.90;;;;;;;;;;5072291;28;20470;-69
2023/04/23 09:52:19;;;;;;;57.80;3.00;;;;;;;;;;5072561;28;20470;-69
2023/04/23 09:54:47;;;;;;;58.77;2.90;;;;;;;;;;5072860;28;20474;-69
2023/04/23 09:57:14;;;;;;;57.97;2.63;;;;;;;;;;5072829;28;20454;-69
2023/04/23 09:59:43;;;;;;;57.47;2.80;;;;;;;;;;5072168;28;20478;-70
2023/04/23 10:02:11;;;;;;;58.23;2.80;;;;;;;;;;5072522;28;20518;-70
2023/04/23 10:04:39;;;;;;;57.40;2.63;;;;;;;;;;5072632;28;20469;-71
2023/04/23 10:07:12;;;;;;;57.50;3.00;;;;;;;;;;5072772;28;20459;-70
2023/04/23 10:09:40;;;;;;;57.40;2.77;;;;;;;;;;5072479;28;20836;-70
2023/04/23 10:12:07;;;;;;;58.13;2.47;;;;;;;;;;5072756;28;20808;-70
2023/04/23 10:14:34;;;;;;;58.47;3.63;;;;;;;;;;5072622;28;20454;-70
2023/04/23 10:17:04;;;;;;;57.17;2.90;;;;;;;;;;5072467;28;20447;-69
2023/04/23 10:19:32;;;;;;;57.70;2.80;;;;;;;;;;5072014;28;20557;-69
2023/04/23 10:22:03;;;;;;;58.10;3.00;;;;;;;;;;5072057;28;21007;-69
2023/04/23 10:24:32;;;;;;;58.23;3.00;;;;;;;;;;5072298;28;20831;-70
2023/04/23 10:27:01;;;;;;;57.27;2.60;;;;;;;;;;5072019;28;20936;-69
2023/04/23 10:29:29;;;;;;;57.07;2.60;;;;;;;;;;5072148;28;20475;-69
2023/04/23 10:31:57;;;;;;;57.03;2.60;;;;;;;;;;5071975;28;20509;-69
2023/04/23 10:34:26;;;;;;;56.97;2.40;;;;;;;;;;5071912;28;20954;-69
2023/04/23 10:36:53;;;;;;;56.97;2.57;;;;;;;;;;5071984;28;20970;-69
2023/04/23 10:39:21;;;;;;;58.03;2.50;;;;;;;;;;5071777;28;20463;-69
2023/04/23 10:41:49;;;;;;;59.60;2.60;;;;;;;;;;5072000;28;20483;-69
2023/04/23 10:44:16;;;;;;;56.87;2.17;;;;;;;;;;5071803;28;20447;-69
2023/04/23 10:46:51;;;;;;;57.07;2.30;;;;;;;;;;5070916;28;20928;-69
2023/04/23 10:49:18;;;;;;;57.40;2.70;;;;;;;;;;5071688;28;20466;-69
2023/04/23 10:51:48;;;;;;;57.17;2.47;;;;;;;;;;5071796;28;20451;-70
2023/04/23 10:54:16;;;;;;;57.70;2.60;;;;;;;;;;5071887;28;20482;-70
2023/04/23 10:56:43;;;;;;;58.77;2.80;;;;;;;;;;5071659;28;20443;-69
2023/04/23 10:59:19;;;;;;;57.23;2.33;;;;;;;;;;5071406;28;20980;-70
2023/04/23 11:01:47;;;;;;;57.10;2.60;;;;;;;;;;5071639;28;20479;-69
2023/04/23 11:04:21;;;;;;;56.97;2.30;;;;;;;;;;5071888;28;20500;-68
2023/04/23 11:06:54;;;;;;;57.30;2.40;;;;;;;;;;5071775;28;20951;-70
2023/04/23 11:09:31;;;;;;;57.47;2.23;;;;;;;;;;5071117;28;20470;-70
2023/04/23 11:12:00;;;;;;;57.07;2.10;;;;;;;;;;5071767;28;20443;-70
2023/04/23 11:14:51;;;;;;;57.00;2.30;;;;;;;;;;5071618;28;20455;-69
2023/04/23 11:17:19;;;;;;;57.00;2.43;;;;;;;;;;5056394;28;20462;-70
2023/04/23 11:20:16;;;;;;;57.00;2.13;;;;;;;;;;5071092;28;20463;-70
2023/04/23 11:22:46;;;;;;;57.90;1.90;;;;;;;;;;5009633;28;20486;-71
2023/04/23 11:25:14;;;;;;;57.60;2.60;;;;;;;;;;5057929;28;20479;-69
2023/04/23 11:27:41;;;;;;;57.27;2.20;;;;;;;;;;5071520;28;20530;-69
2023/04/23 11:30:11;;;;;;;56.77;2.10;;;;;;;;;;5070929;28;20477;-70
2023/04/23 11:32:39;;;;;;;56.57;2.30;;;;;;;;;;5071818;28;20446;-70
2023/04/23 11:35:08;;;;;;;57.70;2.40;;;;;;;;;;5071489;28;20447;-69
2023/04/23 11:37:39;;;;;;;58.37;2.60;;;;;;;;;;5071472;28;20451;-70
2023/04/23 11:40:09;;;;;;;58.27;2.73;;;;;;;;;;5070950;28;20991;-69
2023/04/23 11:42:42;;;;;;;57.70;2.80;;;;;;;;;;5071314;28;20541;-69
2023/04/23 11:45:15;;;;;;;56.80;2.67;;;;;;;;;;5071511;28;20447;-70
2023/04/23 11:47:42;;;;;;;57.83;2.47;;;;;;;;;;5071422;28;20546;-69
2023/04/23 11:50:10;;;;;;;58.50;2.93;;;;;;;;;;5071038;28;20468;-70
2023/04/23 11:52:37;;;;;;;57.80;2.90;;;;;;;;;;5071370;28;20443;-70
2023/04/23 11:55:08;;;;;;;59.27;2.47;;;;;;;;;;5071179;28;20449;-70
2023/04/23 11:57:36;;;;;;;57.27;2.63;;;;;;;;;;5072470;28;20451;-70
2023/04/23 12:00:11;;;;;;;59.10;2.60;;;;;;;;;;5074621;28;20566;-69
2023/04/23 12:02:38;;;;;;;61.37;2.63;;;;;;;;;;5074947;28;20570;-69
2023/04/23 12:05:08;;;;;;;57.30;2.50;;;;;;;;;;5074797;28;20447;-70
2023/04/23 12:07:35;;;;;;;57.50;2.07;;;;;;;;;;5074646;28;20477;-70
2023/04/23 12:10:02;;;;;;;57.50;2.40;;;;;;;;;;5074508;28;20463;-69
2023/04/23 12:12:35;;;;;;;57.17;2.00;;;;;;;;;;5075045;28;20446;-70
2023/04/23 12:15:05;;;;;;;59.37;2.33;;;;;;;;;;5074761;28;20451;-69
2023/04/23 12:17:33;;;;;;;56.83;2.00;;;;;;;;;;5074594;28;20472;-70
2023/04/23 12:20:05;;;;;;;57.00;2.10;;;;;;;;;;5074092;28;20836;-69
2023/04/23 12:22:33;;;;;;;56.83;2.10;;;;;;;;;;5074654;28;20569;-70
2023/04/23 12:25:02;;;;;;;56.90;2.17;;;;;;;;;;5074347;28;20455;-70
2023/04/23 12:27:32;;;;;;;57.10;2.07;;;;;;;;;;5074496;28;20463;-70
2023/04/23 12:30:01;;;;;;;57.00;2.00;;;;;;;;;;5074124;28;20881;-70
2023/04/23 12:32:28;;;;;;;57.20;2.10;;;;;;;;;;5074242;28;20451;-70
2023/04/23 12:34:56;;;;;;;56.97;2.17;;;;;;;;;;5074673;28;20443;-70
2023/04/23 12:37:25;;;;;;;59.50;2.40;;;;;;;;;;5074145;28;20545;-70
2023/04/23 12:39:54;;;;;;;58.00;2.27;;;;;;;;;;5074060;28;20467;-71
2023/04/23 12:42:21;;;;;;;57.23;2.50;;;;;;;;;;5074106;28;20502;-71
2023/04/23 12:44:50;;;;;;;57.20;2.10;;;;;;;;;;5074013;28;20450;-68
2023/04/23 12:47:19;;;;;;;56.63;2.10;;;;;;;;;;5073723;28;20838;-68
2023/04/23 12:49:48;;;;;;;57.63;2.10;;;;;;;;;;5073739;28;20882;-72
2023/04/23 12:52:15;;;;;;;57.90;2.23;;;;;;;;;;5074028;28;20444;-67
2023/04/23 12:54:43;;;;;;;57.00;2.50;;;;;;;;;;5074121;28;20828;-71
2023/04/23 12:57:12;;;;;;;56.87;2.20;;;;;;;;;;5073993;28;20451;-69
2023/04/23 12:59:40;;;;;;;57.47;2.40;;;;;;;;;;5073246;28;20464;-69
2023/04/23 13:02:07;;;;;;;56.67;2.00;;;;;;;;;;5073843;28;20483;-69
2023/04/23 13:04:36;;;;;;;56.87;2.27;;;;;;;;;;5073851;28;20831;-69
2023/04/23 13:07:04;;;;;;;56.57;1.90;;;;;;;;;;5073772;28;20843;-70
2023/04/23 13:09:31;;;;;;;56.30;1.90;;;;;;;;;;5072247;28;20464;-71
2023/04/23 13:11:58;;;;;;;57.10;2.13;;;;;;;;;;5073617;28;20827;-70
2023/04/23 13:14:26;;;;;;;56.57;2.10;;;;;;;;;;5073401;28;20664;-71
2023/04/23 13:16:53;;;;;;;57.10;2.23;;;;;;;;;;5073614;28;20475;-71
2023/04/23 13:19:20;;;;;;;56.87;2.13;;;;;;;;;;5073104;28;20490;-70
2023/04/23 13:21:49;;;;;;;57.43;2.57;;;;;;;;;;5073415;28;20474;-70
2023/04/23 13:24:16;;;;;;;58.80;2.07;;;;;;;;;;5073427;28;20807;-71
2023/04/23 13:26:43;;;;;;;57.80;2.27;;;;;;;;;;5073437;28;20450;-71
2023/04/23 13:29:10;;;;;;;56.37;2.00;;;;;;;;;;5073070;28;20467;-70
2023/04/23 13:31:38;;;;;;;56.90;2.10;;;;;;;;;;5073103;28;20451;-71
2023/04/23 13:34:05;;;;;;;56.90;2.30;;;;;;;;;;5073249;28;20827;-71
2023/04/23 13:36:32;;;;;;;56.70;2.17;;;;;;;;;;5073251;28;20447;-71
2023/04/23 13:39:00;;;;;;;56.50;2.00;;;;;;;;;;5072707;28;20472;-70
2023/04/23 13:41:27;;;;;;;56.90;2.20;;;;;;;;;;5072974;28;20555;-70
2023/04/23 13:43:55;;;;;;;56.43;1.90;;;;;;;;;;5072853;28;20451;-70
2023/04/23 13:46:22;;;;;;;56.87;2.10;;;;;;;;;;5073016;28;20447;-70
2023/04/23 13:48:49;;;;;;;56.67;2.30;;;;;;;;;;5072347;28;20946;-70
2023/04/23 13:51:16;;;;;;;57.47;2.53;;;;;;;;;;5072729;28;20456;-70
2023/04/23 13:53:43;;;;;;;56.93;2.40;;;;;;;;;;5072681;28;20458;-70
2023/04/23 13:56:12;;;;;;;56.60;2.03;;;;;;;;;;5072612;28;20826;-71
2023/04/23 13:58:41;;;;;;;56.47;1.97;;;;;;;;;;5072172;28;20466;-70
2023/04/23 14:01:08;;;;;;;57.50;2.60;;;;;;;;;;5072725;28;20455;-70
2023/04/23 14:03:36;;;;;;;59.70;2.50;;;;;;;;;;5072462;28;21082;-70
2023/04/23 14:06:03;;;;;;;57.30;2.40;;;;;;;;;;5072687;28;20447;-69
2023/04/23 14:08:30;;;;;;;58.90;3.00;;;;;;;;;;5072043;28;20458;-69
2023/04/23 14:10:57;;;;;;;57.97;2.57;;;;;;;;;;5072487;28;20457;-70
2023/04/23 14:13:25;;;;;;;57.80;2.53;;;;;;;;;;5072515;28;20450;-69
2023/04/23 14:15:52;;;;;;;58.33;2.90;;;;;;;;;;5072458;28;20451;-70
2023/04/23 14:18:20;;;;;;;56.97;2.40;;;;;;;;;;5072042;28;20448;-69
2023/04/23 14:20:47;;;;;;;57.10;2.30;;;;;;;;;;5071849;28;20443;-70
2023/04/23 14:23:37;;;;;;;57.10;2.20;;;;;;;;;;5072160;28;20578;-69
2023/04/23 14:26:05;;;;;;;56.73;2.00;;;;;;;;;;5072117;28;20962;-70
2023/04/23 14:28:38;;;;;;;57.87;2.53;;;;;;;;;;5072210;28;20444;-69
2023/04/23 14:31:06;;;;;;;57.37;2.37;;;;;;;;;;5072017;28;21026;-69
2023/04/23 14:33:33;;;;;;;56.67;2.40;;;;;;;;;;5071965;28;20446;-69
2023/04/23 14:36:00;;;;;;;57.07;2.27;;;;;;;;;;5072266;28;20458;-69